Warroad, MN

11:08 CDT le 21 septembre 2014 (GMT -0500)
Warroad International-Carlson | Change Station
CLOSE
Current Station
Aéroport
Location: Warroad,
Altitude: 1073 ft
Stations météo à proximité

Alt. 1073 ft 48.94 °N, 95.35 °W | Updated 14 minutes ago

Scattered Clouds
Nuages épars
55 ° F
Paraît 55 ° F
N
5
Vent Variable Vent de NO

Aujourd'hui
Haut(e) -- | Bas -- ° F
--% Risque de précip.
Hier
Haut(e) -- | Bas -- ° F
Precip. -- pouce
7:06 AM 7:21 PM
Lune descendante, 6% visible
Pression 30.18 pouce
Visibilité 10.0 Miles terrestres
Nuages Nuages épars 1600 ft
Point de rosée 52 ° F
Humidité 88%
Précipitations 0.06 pouce
Profondeur de la couche neigeuse Non disponible.
UV 3 sur 12
Pollen .90 sur 12
Qualité de l'air Non disponible.
Flu Activity Non disponible.
METAR KRRT 211554Z AUTO 31004KT 10SM SCT016 13/11 A3018 RMK AO2

More Conditions Fewer Conditions

Pression 30.18 pouce
Visibilité 10.0 Miles terrestres
Nuages Nuages épars 1600 ft
Point de rosée 52 ° F
Humidité 88%
Précipitations 0.06 pouce
Profondeur de la couche neigeuse Non disponible.
UV 3 sur 12
Pollen .90 sur 12
Qualité de l'air Non disponible.
Flu Activity Non disponible.
METAR KRRT 211554Z AUTO 31004KT 10SM SCT016 13/11 A3018 RMK AO2

More Conditions Fewer Conditions

10-Day Weather Forecast

Almanac

Astronomie

Sep. 21, 2014 Lever Coucher
Temps réel 07:06 CDT 19:21 CDT
Crépuscule civil 06:34 CDT 19:52 CDT
Crépuscule nautique 05:57 CDT 20:29 CDT
Crépuscule astronomique 05:18 CDT 21:08 CDT
Lune 04:31 CDT 18:05 CDT
Durée de lumière visible 13h 17m
Longueur du jour
12h 14m
Tomorrow will be 3m 34s shorter.
Lune descendante, 6% of the Moon is Illuminated
Aujourd'hui
Lune descendante
Sep 24
Nouveau
Oct 1
Premier quartier
Oct 8
Pleine lune
Oct 15
Dernier quartier

Extrêmes aujourd'hui

State Highs State Lows

Community

WunderPhotos

Upload Photos

1,755,181 Photos téléchargées !

Nearby

Épaisseur de neige

Station Depth Altitude
Pas de nouvelles chutes de neige

Activité sismique

Ville Distance Mag. Time & Date
No recent earthquake activity has been reported nearby.
Minimum magnitude displayed is 2.5.

Températures des eaux côtières

Lieu Température
Aucun rapport de station

Stations météo à proximité